createdAt,value
2018-06-11T00:00:16.325Z,38.23
2018-06-11T00:02:44.640Z,50.10
2018-06-11T00:05:12.944Z,48.43
2018-06-11T00:07:41.258Z,49.27
2018-06-11T00:10:09.590Z,54.77
2018-06-11T00:12:37.919Z,57.93
2018-06-11T00:15:06.249Z,40.87
2018-06-11T00:17:34.566Z,44.33
2018-06-11T00:20:02.925Z,43.27
2018-06-11T00:22:31.255Z,43.90
2018-06-11T00:24:59.553Z,38.20
2018-06-11T00:27:27.864Z,47.53
2018-06-11T00:29:56.183Z,34.70
2018-06-11T00:32:24.509Z,38.73
2018-06-11T00:34:52.800Z,32.70
2018-06-11T00:37:21.114Z,34.33
2018-06-11T00:39:49.454Z,38.33
2018-06-11T00:42:17.765Z,40.57
2018-06-11T00:44:46.295Z,35.17
2018-06-11T00:47:14.617Z,46.47
2018-06-11T00:49:42.924Z,50.83
2018-06-11T00:52:11.253Z,53.17
2018-06-11T00:54:39.549Z,42.23
2018-06-11T00:57:07.894Z,45.07
2018-06-11T00:59:36.198Z,48.70
2018-06-11T01:02:04.586Z,45.73
2018-06-11T01:04:32.885Z,42.73
2018-06-11T01:07:01.209Z,37.93
2018-06-11T01:09:29.529Z,51.43
2018-06-11T01:11:57.831Z,49.20
2018-06-11T01:14:26.189Z,51.47
2018-06-11T01:16:54.492Z,47.90
2018-06-11T01:19:22.866Z,49.87
2018-06-11T01:21:51.172Z,48.00
2018-06-11T01:24:19.509Z,45.80
2018-06-11T01:26:47.809Z,42.77
2018-06-11T01:29:16.132Z,36.07
2018-06-11T01:31:44.429Z,33.90
2018-06-11T01:34:12.749Z,40.50
2018-06-11T01:36:41.048Z,45.77
2018-06-11T01:39:09.375Z,43.00
2018-06-11T01:41:37.681Z,36.37
2018-06-11T01:44:06.036Z,36.33
2018-06-11T01:46:34.329Z,41.33
2018-06-11T01:49:02.676Z,39.13
2018-06-11T01:51:30.973Z,40.57
2018-06-11T01:53:59.283Z,32.63
2018-06-11T01:56:27.593Z,38.73
2018-06-11T01:58:55.933Z,34.67
2018-06-11T02:01:24.234Z,33.17
2018-06-11T02:03:52.556Z,38.73
2018-06-11T02:06:20.861Z,34.10
2018-06-11T02:08:49.213Z,36.03
2018-06-11T02:11:17.550Z,34.47
2018-06-11T02:13:45.869Z,42.00
2018-06-11T02:16:14.185Z,38.20
2018-06-11T02:18:42.497Z,41.07
2018-06-11T02:21:10.833Z,46.13
2018-06-11T02:23:39.133Z,45.13
2018-06-11T02:26:07.484Z,44.77
2018-06-11T02:28:35.813Z,45.07
2018-06-11T02:31:04.142Z,50.97
2018-06-11T02:33:32.441Z,50.73
2018-06-11T02:36:00.777Z,52.73
2018-06-11T02:38:29.101Z,54.07
2018-06-11T02:40:57.443Z,42.33
2018-06-11T02:43:25.777Z,58.67
2018-06-11T02:45:54.118Z,59.17
2018-06-11T02:48:22.446Z,48.13
2018-06-11T02:50:50.805Z,55.13
2018-06-11T02:53:19.125Z,42.50
2018-06-11T02:55:47.479Z,45.80
2018-06-11T02:58:15.782Z,49.03
2018-06-11T03:00:44.111Z,44.00
2018-06-11T03:03:12.429Z,40.93
2018-06-11T03:05:40.741Z,44.87
2018-06-11T03:08:09.037Z,42.23
2018-06-11T03:10:37.381Z,42.70
2018-06-11T03:13:05.989Z,45.30
2018-06-11T03:15:34.404Z,46.17
2018-06-11T03:18:02.645Z,44.20
2018-06-11T03:20:30.982Z,43.73
2018-06-11T03:22:59.286Z,36.80
2018-06-11T03:25:27.634Z,45.67
2018-06-11T03:27:55.937Z,48.13
2018-06-11T03:30:24.284Z,59.43
2018-06-11T03:32:52.581Z,62.20
2018-06-11T03:35:21.009Z,51.43
2018-06-11T03:37:49.353Z,63.23
2018-06-11T03:40:17.677Z,66.27
2018-06-11T03:42:45.980Z,53.03
2018-06-11T03:45:14.313Z,49.47
2018-06-11T03:47:42.641Z,51.93
2018-06-11T03:50:10.962Z,51.00
2018-06-11T03:52:39.258Z,49.97
2018-06-11T03:55:07.582Z,52.80
2018-06-11T03:57:35.893Z,55.23
2018-06-11T04:00:04.289Z,58.67
2018-06-11T04:02:32.604Z,58.20
2018-06-11T04:05:00.901Z,51.80
2018-06-11T04:07:29.247Z,52.63
2018-06-11T04:09:57.577Z,49.53
2018-06-11T04:12:25.895Z,55.80
2018-06-11T04:14:54.218Z,48.80
2018-06-11T04:17:22.536Z,43.20
2018-06-11T04:19:50.857Z,39.77
2018-06-11T04:22:19.184Z,45.47
2018-06-11T04:24:47.578Z,42.87
2018-06-11T04:27:15.893Z,41.10
2018-06-11T04:29:44.196Z,38.53
2018-06-11T04:32:12.530Z,45.30
2018-06-11T04:34:40.821Z,45.80
2018-06-11T04:37:09.153Z,37.93
2018-06-11T04:39:37.524Z,33.00
2018-06-11T04:42:05.833Z,40.07
2018-06-11T04:44:34.149Z,41.97
2018-06-11T04:47:02.465Z,40.63
2018-06-11T04:49:30.772Z,40.37
2018-06-11T04:51:59.093Z,38.87
2018-06-11T04:54:27.394Z,34.70
2018-06-11T04:56:55.752Z,37.13
2018-06-11T04:59:24.069Z,43.17
2018-06-11T05:01:52.507Z,40.40
2018-06-11T05:04:20.853Z,45.70
2018-06-11T05:06:50.314Z,45.53
2018-06-11T05:09:19.172Z,35.20
2018-06-11T05:11:48.700Z,43.63
2018-06-11T05:14:17.537Z,41.37
2018-06-11T05:16:47.195Z,37.77
2018-06-11T05:19:16.438Z,38.80
2018-06-11T05:21:46.054Z,44.67
2018-06-11T05:24:14.412Z,40.97
2018-06-11T05:26:44.364Z,43.87
2018-06-11T05:29:13.368Z,45.70
2018-06-11T05:31:42.150Z,40.27
2018-06-11T05:34:10.485Z,46.00
2018-06-11T05:36:39.672Z,41.47
2018-06-11T05:39:10.522Z,41.83
2018-06-11T05:41:39.510Z,36.73
2018-06-11T05:44:08.849Z,42.80
2018-06-11T05:46:37.525Z,37.77
2018-06-11T05:49:06.980Z,41.47
2018-06-11T05:51:36.173Z,35.17
2018-06-11T05:54:05.304Z,35.03
2018-06-11T05:56:34.067Z,37.43
2018-06-11T05:59:03.763Z,36.50
2018-06-11T06:01:32.592Z,37.97
2018-06-11T06:04:02.509Z,33.73
2018-06-11T06:06:31.432Z,33.67
2018-06-11T06:09:01.934Z,29.90
2018-06-11T06:11:30.923Z,32.43
2018-06-11T06:14:00.160Z,21.93
2018-06-11T06:16:28.730Z,32.13
2018-06-11T06:18:57.505Z,28.67
2018-06-11T06:21:26.665Z,31.97
2018-06-11T06:23:56.168Z,29.97
2018-06-11T06:26:26.213Z,30.27
2018-06-11T06:28:56.773Z,34.53
2018-06-11T06:31:25.704Z,29.83
2018-06-11T06:33:54.613Z,32.20
2018-06-11T06:36:23.921Z,30.80
2018-06-11T06:38:53.636Z,31.57
2018-06-11T06:41:22.926Z,25.30
2018-06-11T06:43:51.905Z,29.80
2018-06-11T06:46:27.187Z,28.27
2018-06-11T06:48:56.175Z,32.60
2018-06-11T06:51:25.474Z,31.73
2018-06-11T06:53:53.806Z,29.30
2018-06-11T06:56:23.726Z,31.43
2018-06-11T06:58:53.536Z,41.43
2018-06-11T07:01:23.118Z,28.47
2018-06-11T07:03:52.521Z,67.63
2018-06-11T07:06:22.162Z,47.87
2018-06-11T07:08:51.089Z,37.73
2018-06-11T07:11:19.971Z,30.73
2018-06-11T07:13:48.575Z,27.93
2018-06-11T07:16:17.465Z,27.93
2018-06-11T07:18:48.393Z,31.27
2018-06-11T07:21:18.831Z,31.57
2018-06-11T07:23:47.693Z,31.77
2018-06-11T07:26:16.616Z,40.13
2018-06-11T07:28:47.219Z,31.87
2018-06-11T07:31:15.645Z,32.17
2018-06-11T07:33:43.917Z,29.07
2018-06-11T07:36:12.504Z,30.20
2018-06-11T07:38:42.143Z,24.03
2018-06-11T07:41:11.604Z,26.77
2018-06-11T07:43:40.506Z,31.37
2018-06-11T07:46:09.583Z,27.70
2018-06-11T07:48:40.513Z,26.07
2018-06-11T07:51:09.331Z,27.40
2018-06-11T07:53:37.646Z,29.90
2018-06-11T07:56:05.994Z,28.60
2018-06-11T07:58:36.415Z,26.57
2018-06-11T08:01:10.254Z,25.73
2018-06-11T08:03:42.070Z,26.83
2018-06-11T08:06:10.627Z,27.20
2018-06-11T08:08:44.661Z,27.43
2018-06-11T08:11:14.918Z,25.40
2018-06-11T08:13:43.915Z,26.20
2018-06-11T08:16:13.671Z,26.90
2018-06-11T08:18:42.923Z,29.13
2018-06-11T08:21:12.495Z,29.33
2018-06-11T08:23:40.796Z,28.03
2018-06-11T08:26:10.944Z,38.07
2018-06-11T08:28:39.752Z,28.47
2018-06-11T08:31:09.409Z,26.17
2018-06-11T08:33:39.062Z,25.70
2018-06-11T09:52:10.620Z,21.57
2018-06-11T09:54:39.482Z,22.63
2018-06-11T09:57:08.501Z,21.53
2018-06-11T09:59:37.341Z,18.57
2018-06-11T10:02:07.010Z,19.37
2018-06-11T10:04:36.320Z,22.53
2018-06-11T10:07:05.069Z,19.23
2018-06-11T10:09:36.140Z,20.23
2018-06-11T10:12:04.971Z,19.43
2018-06-11T10:14:33.901Z,20.50
2018-06-11T10:17:03.728Z,20.07
2018-06-11T10:19:32.705Z,19.53
2018-06-11T10:22:01.923Z,20.30
2018-06-11T10:24:30.535Z,18.87
2018-06-11T10:26:59.251Z,20.43
2018-06-11T10:29:28.907Z,19.47
2018-06-11T10:31:57.357Z,21.83
2018-06-11T10:34:27.061Z,20.80
2018-06-11T10:36:56.695Z,22.43
2018-06-11T10:39:25.496Z,19.63
2018-06-11T10:41:54.771Z,23.20
2018-06-11T10:44:23.070Z,25.33
2018-06-11T10:46:51.941Z,23.17
2018-06-11T10:49:21.811Z,23.10
2018-06-11T10:51:51.444Z,22.33
2018-06-11T10:54:22.672Z,23.03
2018-06-11T10:56:51.299Z,22.00
2018-06-11T10:59:21.553Z,20.60
2018-06-11T11:01:51.824Z,18.53
2018-06-11T11:04:22.186Z,18.20
2018-06-11T11:06:51.149Z,18.30
2018-06-11T11:09:20.546Z,18.27
2018-06-11T11:11:49.950Z,21.13
2018-06-11T11:14:18.940Z,19.00
2018-06-11T11:16:47.738Z,18.97
2018-06-11T11:19:17.369Z,18.60
2018-06-11T11:21:46.075Z,19.77
2018-06-11T11:24:14.443Z,18.30
2018-06-11T11:26:43.197Z,18.43
2018-06-11T11:29:12.041Z,17.60
2018-06-11T11:31:41.475Z,19.13
2018-06-11T11:34:10.297Z,18.57
2018-06-11T11:36:40.419Z,17.50
2018-06-11T11:39:10.156Z,16.83
2018-06-11T11:41:39.868Z,18.27
2018-06-11T11:44:09.970Z,16.87
2018-06-11T11:46:39.736Z,17.33
2018-06-11T11:49:12.121Z,17.73
2018-06-11T11:51:42.347Z,17.07
2018-06-11T11:54:11.993Z,17.67
2018-06-11T11:56:43.775Z,17.93
2018-06-11T11:59:13.521Z,18.97
2018-06-11T12:01:42.857Z,17.47
2018-06-11T12:04:12.951Z,18.53
2018-06-11T12:06:43.304Z,21.83
2018-06-11T12:09:12.294Z,19.00
2018-06-11T12:11:41.988Z,19.00
2018-06-11T12:14:10.992Z,17.03
2018-06-11T12:16:39.917Z,18.30
2018-06-11T12:19:09.221Z,17.70
2018-06-11T12:21:38.328Z,18.47
2018-06-11T12:24:07.630Z,20.03
2018-06-11T12:26:36.423Z,22.63
2018-06-11T12:29:05.275Z,23.60
2018-06-11T12:31:35.155Z,22.53
2018-06-11T12:34:05.391Z,26.63
2018-06-11T12:36:34.854Z,31.67
2018-06-11T12:39:07.078Z,35.77
2018-06-11T12:41:37.197Z,47.80
2018-06-11T12:44:06.048Z,58.43
2018-06-11T12:46:36.456Z,59.90
2018-06-11T12:49:06.565Z,51.97
2018-06-11T12:51:34.897Z,71.80
2018-06-11T12:54:04.624Z,61.53
2018-06-11T12:56:33.690Z,79.70
2018-06-11T12:59:03.789Z,91.60
2018-06-11T13:01:35.757Z,141.23
2018-06-11T13:04:05.658Z,342.10
2018-06-11T13:06:36.023Z,133.00
2018-06-11T13:09:08.753Z,75.50
2018-06-11T13:11:37.932Z,33.03
2018-06-11T13:14:06.339Z,22.23
2018-06-11T13:16:35.589Z,14.27
2018-06-11T13:19:06.291Z,17.50
2018-06-11T13:21:35.798Z,12.83
2018-06-11T13:24:05.250Z,23.20
2018-06-11T13:26:34.450Z,15.10
2018-06-11T13:29:03.155Z,20.27
2018-06-11T13:31:31.784Z,11.67
2018-06-11T13:34:00.404Z,12.37
2018-06-11T13:36:30.066Z,16.10
2018-06-11T13:38:59.179Z,12.43
2018-06-11T13:41:32.161Z,14.37
2018-06-11T13:44:00.493Z,18.37
2018-06-11T13:46:29.581Z,11.03
2018-06-11T13:48:58.809Z,15.00
2018-06-11T13:51:27.944Z,16.83
2018-06-11T13:53:56.541Z,19.30
2018-06-11T13:56:25.681Z,18.53
2018-06-11T13:58:54.353Z,15.60
2018-06-11T14:01:23.245Z,12.17
2018-06-11T14:03:53.533Z,8.77
2018-06-11T14:06:22.473Z,14.20
2018-06-11T14:08:52.775Z,16.80
2018-06-11T14:11:21.673Z,15.20
2018-06-11T14:13:50.084Z,9.17
2018-06-11T14:16:20.152Z,21.33
2018-06-11T14:18:48.884Z,18.17
2018-06-11T14:21:17.614Z,14.37
2018-06-11T14:23:45.916Z,14.30
2018-06-11T14:26:15.909Z,9.13
2018-06-11T14:28:44.521Z,17.07
2018-06-11T14:31:13.964Z,17.90
2018-06-11T14:33:42.533Z,9.60
2018-06-11T14:36:11.282Z,11.87
2018-06-11T14:38:41.653Z,16.77
2018-06-11T14:41:11.032Z,15.60
2018-06-11T14:43:41.514Z,16.53
2018-06-11T14:46:10.958Z,17.03
2018-06-11T14:48:39.711Z,19.67
2018-06-11T14:51:08.521Z,18.77
2018-06-11T14:53:36.889Z,18.30
2018-06-11T14:56:06.553Z,17.43
2018-06-11T14:58:35.191Z,13.17
2018-06-11T15:01:04.841Z,16.70
2018-06-11T15:03:33.169Z,18.17
2018-06-11T15:06:03.302Z,22.47
2018-06-11T15:08:32.419Z,15.27
2018-06-11T15:11:01.485Z,25.87
2018-06-11T15:13:29.824Z,25.23
2018-06-11T15:15:58.137Z,13.23
2018-06-11T15:18:26.433Z,17.73
2018-06-11T15:20:54.769Z,18.40
2018-06-11T15:23:23.073Z,15.67
2018-06-11T15:25:51.394Z,24.07
2018-06-11T15:28:19.689Z,13.47
2018-06-11T15:30:48.008Z,20.97
2018-06-11T15:33:16.324Z,21.67
2018-06-11T15:35:44.661Z,22.37
2018-06-11T15:38:12.958Z,14.70
2018-06-11T15:40:41.305Z,17.00
2018-06-11T15:43:09.649Z,16.33
2018-06-11T15:45:37.950Z,13.20
2018-06-11T15:48:06.278Z,13.57
2018-06-11T15:50:34.580Z,18.53
2018-06-11T15:53:02.902Z,13.67
2018-06-11T15:55:31.199Z,16.17
2018-06-11T15:57:59.522Z,8.03
2018-06-11T16:00:27.823Z,14.93
2018-06-11T16:02:56.146Z,7.30
2018-06-11T16:05:24.464Z,12.27
2018-06-11T16:07:52.798Z,10.27
2018-06-11T16:10:21.113Z,20.73
2018-06-11T16:12:49.433Z,15.10
2018-06-11T16:15:17.753Z,13.23
2018-06-11T16:17:46.071Z,9.33
2018-06-11T16:20:14.409Z,8.83
2018-06-11T16:22:42.736Z,6.77
2018-06-11T16:25:11.043Z,8.90
2018-06-11T16:27:39.406Z,6.83
2018-06-11T16:30:07.702Z,11.50
2018-06-11T16:32:36.033Z,8.17
2018-06-11T16:35:04.385Z,11.57
2018-06-11T16:37:32.730Z,7.27
2018-06-11T16:40:01.041Z,7.50
2018-06-11T16:42:29.386Z,7.53
2018-06-11T16:44:57.681Z,7.70
2018-06-11T16:47:25.998Z,12.23
2018-06-11T16:49:54.297Z,10.17
2018-06-11T16:52:22.608Z,7.40
2018-06-11T16:54:50.941Z,7.60
2018-06-11T16:57:19.276Z,6.67
2018-06-11T16:59:47.573Z,6.87
2018-06-11T17:02:15.909Z,12.53
2018-06-11T17:04:44.273Z,7.43
2018-06-11T17:07:12.582Z,8.30
2018-06-11T17:09:40.879Z,9.43
2018-06-11T17:12:09.213Z,7.50
2018-06-11T17:14:37.505Z,8.17
2018-06-11T17:17:05.849Z,14.10
2018-06-11T17:19:34.141Z,11.50
2018-06-11T17:22:02.489Z,17.50
2018-06-11T17:24:30.809Z,12.20
2018-06-11T17:26:59.115Z,10.43
2018-06-11T17:29:27.424Z,11.77
2018-06-11T17:31:55.767Z,14.07
2018-06-11T17:34:24.108Z,16.73
2018-06-11T17:36:52.395Z,13.80
2018-06-11T17:39:20.765Z,17.03
2018-06-11T17:41:49.099Z,13.80
2018-06-11T17:44:17.425Z,11.60
2018-06-11T17:46:45.728Z,12.13
2018-06-11T17:49:14.025Z,10.70
2018-06-11T17:51:42.344Z,15.90
2018-06-11T17:54:10.666Z,9.53
2018-06-11T17:56:38.982Z,11.40
2018-06-11T17:59:07.313Z,10.47
2018-06-11T18:01:35.680Z,10.07
2018-06-11T18:04:04.039Z,14.23
2018-06-11T18:06:32.323Z,14.13
2018-06-11T18:09:00.622Z,14.03
2018-06-11T18:11:28.938Z,20.10
2018-06-11T18:13:57.234Z,14.23
2018-06-11T18:16:25.609Z,8.73
2018-06-11T18:18:53.924Z,12.23
2018-06-11T18:21:22.226Z,12.40
2018-06-11T18:23:50.528Z,11.80
2018-06-11T18:26:19.790Z,15.43
2018-06-11T18:28:48.112Z,19.60
2018-06-11T18:31:16.417Z,10.23
2018-06-11T18:33:44.729Z,10.13
2018-06-11T18:36:13.085Z,9.33
2018-06-11T18:38:41.401Z,12.20
2018-06-11T18:41:09.696Z,13.80
2018-06-11T18:43:38.031Z,11.83
2018-06-11T18:46:06.350Z,14.77
2018-06-11T18:48:34.665Z,13.30
2018-06-11T18:51:02.970Z,15.67
2018-06-11T18:53:31.295Z,12.87
2018-06-11T18:55:59.609Z,12.10
2018-06-11T18:58:27.933Z,15.63
2018-06-11T19:00:56.241Z,10.70
2018-06-11T19:03:24.545Z,9.17
2018-06-11T19:05:52.870Z,11.17
2018-06-11T19:08:21.193Z,13.20
2018-06-11T19:10:49.494Z,22.30
2018-06-11T19:13:17.837Z,16.40
2018-06-11T19:15:46.149Z,14.80
2018-06-11T19:18:14.470Z,22.57
2018-06-11T19:20:42.794Z,19.53
2018-06-11T19:23:11.108Z,15.83
2018-06-11T19:25:39.424Z,19.90
2018-06-11T19:28:07.773Z,18.47
2018-06-11T19:30:36.174Z,15.17
2018-06-11T19:33:04.566Z,19.97
2018-06-11T19:35:32.875Z,20.00
2018-06-11T19:38:01.134Z,35.73
2018-06-11T19:40:29.721Z,20.93
2018-06-11T19:42:58.029Z,18.53
2018-06-11T19:45:26.354Z,24.70
2018-06-11T19:47:54.728Z,21.37
2018-06-11T19:50:23.030Z,18.57
2018-06-11T19:52:51.439Z,19.87
2018-06-11T19:55:19.820Z,18.83
2018-06-11T19:57:48.130Z,20.80
2018-06-11T20:00:16.476Z,35.27
2018-06-11T20:02:44.798Z,19.53
2018-06-11T20:05:13.250Z,24.57
2018-06-11T20:07:41.664Z,22.87
2018-06-11T20:10:10.099Z,34.53
2018-06-11T20:12:38.417Z,31.43
2018-06-11T20:15:06.761Z,34.17
2018-06-11T20:17:35.065Z,30.50
2018-06-11T20:20:03.421Z,23.00
2018-06-11T20:22:31.742Z,33.13
2018-06-11T20:25:00.062Z,21.37
2018-06-11T20:27:28.380Z,54.80
2018-06-11T20:29:56.705Z,31.30
2018-06-11T20:32:25.062Z,30.43
2018-06-11T20:34:53.417Z,35.67
2018-06-11T20:37:21.769Z,39.50
2018-06-11T20:39:50.110Z,21.90
2018-06-11T20:42:18.440Z,30.60
2018-06-11T20:44:46.822Z,36.43
2018-06-11T20:47:15.152Z,20.10
2018-06-11T20:49:43.448Z,37.60
2018-06-11T20:52:11.773Z,53.47
2018-06-11T20:54:40.090Z,29.10
2018-06-11T20:57:08.402Z,27.90
2018-06-11T20:59:36.931Z,51.20
2018-06-11T21:02:05.269Z,44.97
2018-06-11T21:04:33.576Z,34.50
2018-06-11T21:07:01.909Z,36.73
2018-06-11T21:09:30.222Z,39.20
2018-06-11T21:11:58.541Z,53.13
2018-06-11T21:14:26.853Z,39.37
2018-06-11T21:16:55.229Z,41.47
2018-06-11T21:19:23.525Z,31.47
2018-06-11T21:21:51.873Z,39.83
2018-06-11T21:24:20.180Z,32.93
2018-06-11T21:26:48.506Z,28.77
2018-06-11T21:29:17.013Z,25.90
2018-06-11T21:31:45.376Z,33.10
2018-06-11T21:34:13.794Z,25.93
2018-06-11T21:36:42.116Z,38.87
2018-06-11T21:39:10.453Z,27.67
2018-06-11T21:41:38.840Z,28.90
2018-06-11T21:44:07.180Z,25.27
2018-06-11T21:46:35.578Z,25.17
2018-06-11T21:49:03.921Z,21.13
2018-06-11T21:51:33.044Z,24.37
2018-06-11T21:54:01.414Z,22.07
2018-06-11T21:56:29.837Z,27.10
2018-06-11T21:58:58.134Z,25.70
2018-06-11T22:01:26.476Z,23.80
2018-06-11T22:03:54.855Z,22.27
2018-06-11T22:06:23.130Z,126.70
2018-06-11T22:08:51.461Z,299.53
2018-06-11T22:11:19.785Z,49.97
2018-06-11T22:13:48.105Z,43.27
2018-06-11T22:16:16.489Z,27.90
2018-06-11T22:18:44.804Z,25.63
2018-06-11T22:21:13.137Z,43.67
2018-06-11T22:23:41.437Z,36.23
2018-06-11T22:26:09.758Z,44.10
2018-06-11T22:28:38.936Z,73.83
2018-06-11T22:31:07.265Z,52.63
2018-06-11T22:33:35.585Z,78.60
2018-06-11T22:36:03.895Z,50.17
2018-06-11T22:38:32.229Z,64.13
2018-06-11T22:41:00.516Z,36.57
2018-06-11T22:43:28.925Z,51.43
2018-06-11T22:45:57.233Z,32.47
2018-06-11T22:48:25.558Z,71.87
2018-06-11T22:50:53.894Z,40.70
2018-06-11T22:53:22.221Z,52.73
2018-06-11T22:55:50.544Z,39.67
2018-06-11T22:58:18.860Z,55.47
2018-06-11T23:00:47.217Z,38.93
2018-06-11T23:03:15.560Z,44.27
2018-06-11T23:05:43.866Z,57.73
2018-06-11T23:08:12.222Z,50.80
2018-06-11T23:10:40.531Z,45.57
2018-06-11T23:13:08.873Z,49.03
2018-06-11T23:15:37.180Z,41.17
2018-06-11T23:18:05.606Z,40.13
2018-06-11T23:20:33.909Z,39.80
2018-06-11T23:23:02.226Z,59.53
2018-06-11T23:25:30.552Z,53.63
2018-06-11T23:27:58.917Z,45.27
2018-06-11T23:30:27.229Z,42.57
2018-06-11T23:32:55.570Z,59.93
2018-06-11T23:35:23.867Z,75.20
2018-06-11T23:37:52.194Z,71.53
2018-06-11T23:40:20.486Z,68.17
2018-06-11T23:42:48.833Z,63.07
2018-06-11T23:45:17.137Z,75.10
2018-06-11T23:47:45.464Z,70.00
2018-06-11T23:50:13.780Z,69.10
2018-06-11T23:52:42.101Z,80.33
2018-06-11T23:55:10.393Z,83.83
2018-06-11T23:57:38.784Z,57.10
